sensor_id;sensor_type;location;lat;lon;timestamp;P1;durP1;ratioP1;P2;durP2;ratioP2
28483;SDS011;15704;48.834;8.736;2022-08-19T00:00:30;27.23;;;16.77;;
28483;SDS011;15704;48.834;8.736;2022-08-19T00:04:14;29.98;;;16.92;;
28483;SDS011;15704;48.834;8.736;2022-08-19T00:07:58;30.38;;;17.20;;
28483;SDS011;15704;48.834;8.736;2022-08-19T00:11:42;26.58;;;16.85;;
28483;SDS011;15704;48.834;8.736;2022-08-19T00:15:25;29.80;;;15.30;;
28483;SDS011;15704;48.834;8.736;2022-08-19T00:19:09;31.25;;;18.00;;
28483;SDS011;15704;48.834;8.736;2022-08-19T00:22:52;26.10;;;17.33;;
28483;SDS011;15704;48.834;8.736;2022-08-19T00:26:36;38.35;;;17.05;;
28483;SDS011;15704;48.834;8.736;2022-08-19T00:34:01;29.65;;;18.17;;
28483;SDS011;15704;48.834;8.736;2022-08-19T00:37:46;26.48;;;17.23;;
28483;SDS011;15704;48.834;8.736;2022-08-19T00:41:30;29.73;;;17.63;;
28483;SDS011;15704;48.834;8.736;2022-08-19T00:45:14;24.98;;;16.58;;
28483;SDS011;15704;48.834;8.736;2022-08-19T00:48:59;33.67;;;18.52;;
28483;SDS011;15704;48.834;8.736;2022-08-19T00:52:45;30.88;;;17.95;;
28483;SDS011;15704;48.834;8.736;2022-08-19T00:56:31;27.65;;;17.02;;
28483;SDS011;15704;48.834;8.736;2022-08-19T01:00:16;36.30;;;17.20;;
28483;SDS011;15704;48.834;8.736;2022-08-19T01:04:00;31.95;;;18.25;;
28483;SDS011;15704;48.834;8.736;2022-08-19T01:07:43;30.27;;;17.75;;
28483;SDS011;15704;48.834;8.736;2022-08-19T01:11:28;25.67;;;17.45;;
28483;SDS011;15704;48.834;8.736;2022-08-19T01:15:14;23.98;;;17.45;;
28483;SDS011;15704;48.834;8.736;2022-08-19T01:19:08;35.97;;;18.20;;
28483;SDS011;15704;48.834;8.736;2022-08-19T01:22:56;31.48;;;18.55;;
28483;SDS011;15704;48.834;8.736;2022-08-19T01:26:42;29.48;;;18.52;;
28483;SDS011;15704;48.834;8.736;2022-08-19T01:30:30;27.65;;;18.13;;
28483;SDS011;15704;48.834;8.736;2022-08-19T01:34:15;29.85;;;17.73;;
28483;SDS011;15704;48.834;8.736;2022-08-19T01:38:02;35.28;;;18.90;;
28483;SDS011;15704;48.834;8.736;2022-08-19T01:41:49;28.55;;;18.83;;
28483;SDS011;15704;48.834;8.736;2022-08-19T01:49:16;26.55;;;17.42;;
28483;SDS011;15704;48.834;8.736;2022-08-19T01:53:04;29.98;;;18.25;;
28483;SDS011;15704;48.834;8.736;2022-08-19T01:56:48;30.23;;;18.65;;
28483;SDS011;15704;48.834;8.736;2022-08-19T02:00:33;32.67;;;18.48;;
28483;SDS011;15704;48.834;8.736;2022-08-19T02:04:16;35.45;;;20.15;;
28483;SDS011;15704;48.834;8.736;2022-08-19T02:07:59;32.92;;;20.05;;
28483;SDS011;15704;48.834;8.736;2022-08-19T02:11:43;36.08;;;21.27;;
28483;SDS011;15704;48.834;8.736;2022-08-19T02:15:26;28.00;;;19.85;;
28483;SDS011;15704;48.834;8.736;2022-08-19T02:19:08;32.47;;;21.83;;
28483;SDS011;15704;48.834;8.736;2022-08-19T02:22:53;36.97;;;20.73;;
28483;SDS011;15704;48.834;8.736;2022-08-19T02:26:36;33.80;;;21.75;;
28483;SDS011;15704;48.834;8.736;2022-08-19T02:34:05;31.65;;;20.75;;
28483;SDS011;15704;48.834;8.736;2022-08-19T02:37:48;37.30;;;22.15;;
28483;SDS011;15704;48.834;8.736;2022-08-19T02:41:47;32.47;;;20.73;;
28483;SDS011;15704;48.834;8.736;2022-08-19T02:45:32;33.85;;;22.27;;
28483;SDS011;15704;48.834;8.736;2022-08-19T02:49:20;32.90;;;21.88;;
28483;SDS011;15704;48.834;8.736;2022-08-19T02:53:02;34.40;;;22.48;;
28483;SDS011;15704;48.834;8.736;2022-08-19T02:56:45;36.80;;;22.17;;
28483;SDS011;15704;48.834;8.736;2022-08-19T03:00:28;39.85;;;23.75;;
28483;SDS011;15704;48.834;8.736;2022-08-19T03:04:15;37.58;;;23.20;;
28483;SDS011;15704;48.834;8.736;2022-08-19T03:08:01;35.03;;;23.20;;
28483;SDS011;15704;48.834;8.736;2022-08-19T03:11:44;35.33;;;22.17;;
28483;SDS011;15704;48.834;8.736;2022-08-19T03:15:29;33.25;;;23.02;;
28483;SDS011;15704;48.834;8.736;2022-08-19T03:19:15;36.00;;;22.50;;
28483;SDS011;15704;48.834;8.736;2022-08-19T03:22:58;38.00;;;24.92;;
28483;SDS011;15704;48.834;8.736;2022-08-19T03:26:42;38.70;;;23.45;;
28483;SDS011;15704;48.834;8.736;2022-08-19T03:30:27;38.03;;;24.25;;
28483;SDS011;15704;48.834;8.736;2022-08-19T03:34:09;50.20;;;24.80;;
28483;SDS011;15704;48.834;8.736;2022-08-19T03:37:54;36.60;;;24.63;;
28483;SDS011;15704;48.834;8.736;2022-08-19T03:41:40;41.97;;;24.67;;
28483;SDS011;15704;48.834;8.736;2022-08-19T03:45:28;40.88;;;24.35;;
28483;SDS011;15704;48.834;8.736;2022-08-19T03:49:10;40.85;;;24.35;;
28483;SDS011;15704;48.834;8.736;2022-08-19T03:52:57;44.75;;;25.20;;
28483;SDS011;15704;48.834;8.736;2022-08-19T03:56:42;39.95;;;24.35;;
28483;SDS011;15704;48.834;8.736;2022-08-19T04:00:26;39.38;;;24.45;;
28483;SDS011;15704;48.834;8.736;2022-08-19T04:04:09;36.25;;;23.40;;
28483;SDS011;15704;48.834;8.736;2022-08-19T04:07:52;45.45;;;25.15;;
28483;SDS011;15704;48.834;8.736;2022-08-19T04:11:38;38.72;;;25.20;;
28483;SDS011;15704;48.834;8.736;2022-08-19T04:15:24;43.88;;;25.27;;
28483;SDS011;15704;48.834;8.736;2022-08-19T04:19:07;42.00;;;24.52;;
28483;SDS011;15704;48.834;8.736;2022-08-19T04:22:49;36.65;;;24.25;;
28483;SDS011;15704;48.834;8.736;2022-08-19T04:26:33;39.90;;;26.27;;
28483;SDS011;15704;48.834;8.736;2022-08-19T04:30:19;41.10;;;26.65;;
28483;SDS011;15704;48.834;8.736;2022-08-19T04:34:04;40.42;;;25.08;;
28483;SDS011;15704;48.834;8.736;2022-08-19T04:37:49;38.40;;;26.25;;
28483;SDS011;15704;48.834;8.736;2022-08-19T04:41:31;39.92;;;25.52;;
28483;SDS011;15704;48.834;8.736;2022-08-19T04:45:35;45.45;;;27.50;;
28483;SDS011;15704;48.834;8.736;2022-08-19T04:49:23;45.25;;;25.42;;
28483;SDS011;15704;48.834;8.736;2022-08-19T04:53:07;37.13;;;25.25;;
28483;SDS011;15704;48.834;8.736;2022-08-19T04:56:50;43.95;;;26.33;;
28483;SDS011;15704;48.834;8.736;2022-08-19T05:00:36;39.58;;;25.85;;
28483;SDS011;15704;48.834;8.736;2022-08-19T05:04:20;41.22;;;25.00;;
28483;SDS011;15704;48.834;8.736;2022-08-19T05:08:03;36.60;;;25.25;;
28483;SDS011;15704;48.834;8.736;2022-08-19T05:11:46;39.67;;;24.70;;
28483;SDS011;15704;48.834;8.736;2022-08-19T05:15:30;40.00;;;25.65;;
28483;SDS011;15704;48.834;8.736;2022-08-19T05:19:14;37.88;;;25.63;;
28483;SDS011;15704;48.834;8.736;2022-08-19T05:27:03;43.00;;;27.10;;
28483;SDS011;15704;48.834;8.736;2022-08-19T05:30:46;41.85;;;25.10;;
28483;SDS011;15704;48.834;8.736;2022-08-19T05:34:33;36.08;;;24.40;;
28483;SDS011;15704;48.834;8.736;2022-08-19T05:38:16;42.97;;;26.25;;
28483;SDS011;15704;48.834;8.736;2022-08-19T05:42:00;44.35;;;24.90;;
28483;SDS011;15704;48.834;8.736;2022-08-19T05:45:47;38.83;;;24.63;;
28483;SDS011;15704;48.834;8.736;2022-08-19T05:49:33;41.47;;;23.75;;
28483;SDS011;15704;48.834;8.736;2022-08-19T05:53:16;39.47;;;25.05;;
28483;SDS011;15704;48.834;8.736;2022-08-19T05:56:59;37.55;;;23.90;;
28483;SDS011;15704;48.834;8.736;2022-08-19T06:00:43;36.65;;;23.42;;
28483;SDS011;15704;48.834;8.736;2022-08-19T06:04:26;41.88;;;24.98;;
28483;SDS011;15704;48.834;8.736;2022-08-19T06:08:12;32.95;;;23.00;;
28483;SDS011;15704;48.834;8.736;2022-08-19T06:11:56;41.10;;;23.33;;
28483;SDS011;15704;48.834;8.736;2022-08-19T06:15:40;36.30;;;22.67;;
28483;SDS011;15704;48.834;8.736;2022-08-19T06:19:25;33.67;;;23.13;;
28483;SDS011;15704;48.834;8.736;2022-08-19T06:23:10;30.92;;;21.00;;
28483;SDS011;15704;48.834;8.736;2022-08-19T06:26:58;32.50;;;22.50;;
28483;SDS011;15704;48.834;8.736;2022-08-19T06:30:41;34.05;;;21.65;;
28483;SDS011;15704;48.834;8.736;2022-08-19T06:34:25;35.97;;;21.42;;
28483;SDS011;15704;48.834;8.736;2022-08-19T06:38:09;44.30;;;22.35;;
28483;SDS011;15704;48.834;8.736;2022-08-19T06:45:40;30.65;;;20.35;;
28483;SDS011;15704;48.834;8.736;2022-08-19T06:49:23;31.90;;;21.70;;
28483;SDS011;15704;48.834;8.736;2022-08-19T06:53:12;30.88;;;21.40;;
28483;SDS011;15704;48.834;8.736;2022-08-19T06:56:55;39.22;;;21.88;;
28483;SDS011;15704;48.834;8.736;2022-08-19T07:00:39;32.88;;;21.00;;
28483;SDS011;15704;48.834;8.736;2022-08-19T07:04:22;29.17;;;20.15;;
28483;SDS011;15704;48.834;8.736;2022-08-19T07:08:07;29.98;;;19.90;;
28483;SDS011;15704;48.834;8.736;2022-08-19T07:11:51;29.85;;;20.35;;
28483;SDS011;15704;48.834;8.736;2022-08-19T07:15:36;30.55;;;20.33;;
28483;SDS011;15704;48.834;8.736;2022-08-19T07:19:22;28.52;;;20.00;;
28483;SDS011;15704;48.834;8.736;2022-08-19T07:23:06;28.23;;;19.38;;
28483;SDS011;15704;48.834;8.736;2022-08-19T07:26:52;34.78;;;20.33;;
28483;SDS011;15704;48.834;8.736;2022-08-19T07:30:37;27.80;;;19.45;;
28483;SDS011;15704;48.834;8.736;2022-08-19T07:34:25;32.22;;;20.00;;
28483;SDS011;15704;48.834;8.736;2022-08-19T07:38:08;28.73;;;20.05;;
28483;SDS011;15704;48.834;8.736;2022-08-19T07:41:51;27.05;;;19.10;;
28483;SDS011;15704;48.834;8.736;2022-08-19T07:45:35;25.88;;;18.98;;
28483;SDS011;15704;48.834;8.736;2022-08-19T07:49:18;27.55;;;18.45;;
28483;SDS011;15704;48.834;8.736;2022-08-19T07:53:03;28.45;;;19.60;;
28483;SDS011;15704;48.834;8.736;2022-08-19T07:56:45;25.15;;;18.90;;
28483;SDS011;15704;48.834;8.736;2022-08-19T08:00:32;28.05;;;18.55;;
28483;SDS011;15704;48.834;8.736;2022-08-19T08:04:16;30.08;;;17.63;;
28483;SDS011;15704;48.834;8.736;2022-08-19T08:08:18;25.02;;;17.92;;
28483;SDS011;15704;48.834;8.736;2022-08-19T08:12:28;27.98;;;17.83;;
28483;SDS011;15704;48.834;8.736;2022-08-19T08:16:15;24.92;;;16.70;;
28483;SDS011;15704;48.834;8.736;2022-08-19T08:19:58;29.65;;;17.60;;
28483;SDS011;15704;48.834;8.736;2022-08-19T08:23:42;26.60;;;16.02;;
28483;SDS011;15704;48.834;8.736;2022-08-19T08:27:26;30.17;;;17.58;;
28483;SDS011;15704;48.834;8.736;2022-08-19T08:31:12;23.38;;;15.20;;
28483;SDS011;15704;48.834;8.736;2022-08-19T08:38:37;26.17;;;16.33;;
28483;SDS011;15704;48.834;8.736;2022-08-19T08:42:24;22.17;;;15.27;;
28483;SDS011;15704;48.834;8.736;2022-08-19T08:46:13;18.88;;;13.35;;
28483;SDS011;15704;48.834;8.736;2022-08-19T08:50:13;18.35;;;13.80;;
28483;SDS011;15704;48.834;8.736;2022-08-19T08:54:01;20.08;;;13.82;;
28483;SDS011;15704;48.834;8.736;2022-08-19T08:57:48;25.23;;;14.50;;
28483;SDS011;15704;48.834;8.736;2022-08-19T09:01:36;20.30;;;13.52;;
28483;SDS011;15704;48.834;8.736;2022-08-19T09:05:21;24.13;;;14.40;;
28483;SDS011;15704;48.834;8.736;2022-08-19T09:09:20;26.35;;;14.48;;
28483;SDS011;15704;48.834;8.736;2022-08-19T09:13:15;20.07;;;13.13;;
28483;SDS011;15704;48.834;8.736;2022-08-19T09:17:04;18.83;;;13.33;;
28483;SDS011;15704;48.834;8.736;2022-08-19T09:20:48;22.55;;;13.45;;
28483;SDS011;15704;48.834;8.736;2022-08-19T09:24:32;24.90;;;15.10;;
28483;SDS011;15704;48.834;8.736;2022-08-19T09:28:17;22.17;;;13.90;;
28483;SDS011;15704;48.834;8.736;2022-08-19T09:32:06;16.98;;;12.43;;
28483;SDS011;15704;48.834;8.736;2022-08-19T09:36:08;22.45;;;12.10;;
28483;SDS011;15704;48.834;8.736;2022-08-19T09:40:02;22.83;;;14.68;;
28483;SDS011;15704;48.834;8.736;2022-08-19T09:43:47;15.35;;;11.70;;
28483;SDS011;15704;48.834;8.736;2022-08-19T09:47:32;18.83;;;11.15;;
28483;SDS011;15704;48.834;8.736;2022-08-19T09:51:19;16.02;;;10.93;;
28483;SDS011;15704;48.834;8.736;2022-08-19T09:55:03;16.13;;;10.80;;
28483;SDS011;15704;48.834;8.736;2022-08-19T09:58:49;15.82;;;11.27;;
28483;SDS011;15704;48.834;8.736;2022-08-19T10:02:31;15.27;;;11.27;;
28483;SDS011;15704;48.834;8.736;2022-08-19T10:06:14;15.55;;;10.57;;
28483;SDS011;15704;48.834;8.736;2022-08-19T10:10:03;14.02;;;10.30;;
28483;SDS011;15704;48.834;8.736;2022-08-19T10:13:48;13.00;;;9.40;;
28483;SDS011;15704;48.834;8.736;2022-08-19T10:17:31;12.55;;;7.75;;
28483;SDS011;15704;48.834;8.736;2022-08-19T10:21:17;14.73;;;8.20;;
28483;SDS011;15704;48.834;8.736;2022-08-19T10:25:01;16.23;;;8.70;;
28483;SDS011;15704;48.834;8.736;2022-08-19T10:28:44;11.00;;;7.78;;
28483;SDS011;15704;48.834;8.736;2022-08-19T10:32:28;12.23;;;7.55;;
28483;SDS011;15704;48.834;8.736;2022-08-19T10:36:16;10.40;;;6.88;;
28483;SDS011;15704;48.834;8.736;2022-08-19T10:40:00;9.55;;;6.43;;
28483;SDS011;15704;48.834;8.736;2022-08-19T10:43:44;13.65;;;8.23;;
28483;SDS011;15704;48.834;8.736;2022-08-19T10:47:30;14.05;;;8.20;;
28483;SDS011;15704;48.834;8.736;2022-08-19T10:51:13;11.52;;;7.15;;
28483;SDS011;15704;48.834;8.736;2022-08-19T10:55:14;10.32;;;7.35;;
28483;SDS011;15704;48.834;8.736;2022-08-19T10:59:15;12.82;;;7.95;;
28483;SDS011;15704;48.834;8.736;2022-08-19T11:03:00;14.23;;;8.07;;
28483;SDS011;15704;48.834;8.736;2022-08-19T11:06:42;15.27;;;8.45;;
28483;SDS011;15704;48.834;8.736;2022-08-19T11:10:28;13.18;;;7.25;;
28483;SDS011;15704;48.834;8.736;2022-08-19T11:14:12;10.93;;;7.90;;
28483;SDS011;15704;48.834;8.736;2022-08-19T11:17:56;12.38;;;7.82;;
28483;SDS011;15704;48.834;8.736;2022-08-19T11:25:17;13.18;;;6.20;;
28483;SDS011;15704;48.834;8.736;2022-08-19T11:29:01;11.52;;;6.72;;
28483;SDS011;15704;48.834;8.736;2022-08-19T11:32:47;7.38;;;6.22;;
28483;SDS011;15704;48.834;8.736;2022-08-19T11:36:30;6.95;;;5.28;;
28483;SDS011;15704;48.834;8.736;2022-08-19T11:40:14;12.15;;;5.15;;
28483;SDS011;15704;48.834;8.736;2022-08-19T11:43:58;7.82;;;5.55;;
28483;SDS011;15704;48.834;8.736;2022-08-19T11:47:41;7.82;;;5.50;;
28483;SDS011;15704;48.834;8.736;2022-08-19T11:51:25;13.55;;;5.00;;
28483;SDS011;15704;48.834;8.736;2022-08-19T11:55:09;6.22;;;5.28;;
28483;SDS011;15704;48.834;8.736;2022-08-19T11:58:52;7.93;;;4.75;;
28483;SDS011;15704;48.834;8.736;2022-08-19T12:02:38;9.52;;;4.88;;
28483;SDS011;15704;48.834;8.736;2022-08-19T12:06:22;8.60;;;5.70;;
28483;SDS011;15704;48.834;8.736;2022-08-19T12:10:09;8.80;;;5.00;;
28483;SDS011;15704;48.834;8.736;2022-08-19T12:13:52;7.72;;;5.20;;
28483;SDS011;15704;48.834;8.736;2022-08-19T12:17:35;16.60;;;5.45;;
28483;SDS011;15704;48.834;8.736;2022-08-19T12:21:20;7.95;;;4.40;;
28483;SDS011;15704;48.834;8.736;2022-08-19T12:25:05;14.65;;;4.40;;
28483;SDS011;15704;48.834;8.736;2022-08-19T12:28:49;7.45;;;4.65;;
28483;SDS011;15704;48.834;8.736;2022-08-19T12:36:17;6.47;;;4.70;;
28483;SDS011;15704;48.834;8.736;2022-08-19T12:40:06;7.63;;;4.93;;
28483;SDS011;15704;48.834;8.736;2022-08-19T12:43:50;7.10;;;5.00;;
28483;SDS011;15704;48.834;8.736;2022-08-19T12:47:36;11.05;;;5.90;;
28483;SDS011;15704;48.834;8.736;2022-08-19T12:51:24;8.45;;;5.82;;
28483;SDS011;15704;48.834;8.736;2022-08-19T12:55:08;14.73;;;5.70;;
28483;SDS011;15704;48.834;8.736;2022-08-19T12:58:51;10.52;;;6.40;;
28483;SDS011;15704;48.834;8.736;2022-08-19T13:02:33;9.13;;;6.35;;
28483;SDS011;15704;48.834;8.736;2022-08-19T13:06:19;9.85;;;6.72;;
28483;SDS011;15704;48.834;8.736;2022-08-19T13:10:04;9.05;;;6.10;;
28483;SDS011;15704;48.834;8.736;2022-08-19T13:13:48;7.43;;;6.38;;
28483;SDS011;15704;48.834;8.736;2022-08-19T13:17:33;11.75;;;5.93;;
28483;SDS011;15704;48.834;8.736;2022-08-19T13:21:16;13.32;;;6.57;;
28483;SDS011;15704;48.834;8.736;2022-08-19T13:25:04;13.52;;;6.55;;
28483;SDS011;15704;48.834;8.736;2022-08-19T13:28:48;10.35;;;6.15;;
28483;SDS011;15704;48.834;8.736;2022-08-19T13:32:48;9.05;;;6.32;;
28483;SDS011;15704;48.834;8.736;2022-08-19T13:36:48;8.23;;;6.15;;
28483;SDS011;15704;48.834;8.736;2022-08-19T13:40:37;8.70;;;5.38;;
28483;SDS011;15704;48.834;8.736;2022-08-19T13:44:23;9.48;;;5.15;;
28483;SDS011;15704;48.834;8.736;2022-08-19T13:48:07;9.50;;;5.50;;
28483;SDS011;15704;48.834;8.736;2022-08-19T13:51:50;10.10;;;6.20;;
28483;SDS011;15704;48.834;8.736;2022-08-19T13:55:33;10.13;;;6.38;;
28483;SDS011;15704;48.834;8.736;2022-08-19T13:59:18;9.18;;;6.72;;
28483;SDS011;15704;48.834;8.736;2022-08-19T14:03:01;8.05;;;5.95;;
28483;SDS011;15704;48.834;8.736;2022-08-19T14:06:49;6.82;;;5.30;;
28483;SDS011;15704;48.834;8.736;2022-08-19T14:10:31;9.70;;;6.25;;
28483;SDS011;15704;48.834;8.736;2022-08-19T14:14:15;7.18;;;5.65;;
28483;SDS011;15704;48.834;8.736;2022-08-19T14:17:59;6.85;;;5.45;;
28483;SDS011;15704;48.834;8.736;2022-08-19T14:21:45;9.07;;;5.45;;
28483;SDS011;15704;48.834;8.736;2022-08-19T14:25:28;6.57;;;5.72;;
28483;SDS011;15704;48.834;8.736;2022-08-19T14:29:12;8.68;;;6.22;;
28483;SDS011;15704;48.834;8.736;2022-08-19T14:32:55;8.32;;;5.53;;
28483;SDS011;15704;48.834;8.736;2022-08-19T14:36:40;13.25;;;6.28;;
28483;SDS011;15704;48.834;8.736;2022-08-19T14:40:24;7.80;;;5.85;;
28483;SDS011;15704;48.834;8.736;2022-08-19T14:44:08;10.00;;;5.90;;
28483;SDS011;15704;48.834;8.736;2022-08-19T14:47:53;7.20;;;5.70;;
28483;SDS011;15704;48.834;8.736;2022-08-19T14:51:36;9.65;;;5.63;;
28483;SDS011;15704;48.834;8.736;2022-08-19T14:55:23;8.23;;;5.95;;
28483;SDS011;15704;48.834;8.736;2022-08-19T15:06:31;6.85;;;5.03;;
28483;SDS011;15704;48.834;8.736;2022-08-19T15:10:16;11.48;;;5.20;;
28483;SDS011;15704;48.834;8.736;2022-08-19T15:13:58;5.55;;;4.47;;
28483;SDS011;15704;48.834;8.736;2022-08-19T15:17:42;5.60;;;4.43;;
28483;SDS011;15704;48.834;8.736;2022-08-19T15:21:27;6.43;;;4.60;;
28483;SDS011;15704;48.834;8.736;2022-08-19T15:25:11;14.40;;;4.68;;
28483;SDS011;15704;48.834;8.736;2022-08-19T15:28:57;6.20;;;4.10;;
28483;SDS011;15704;48.834;8.736;2022-08-19T15:32:41;5.57;;;4.25;;
28483;SDS011;15704;48.834;8.736;2022-08-19T15:36:29;7.85;;;4.65;;
28483;SDS011;15704;48.834;8.736;2022-08-19T15:40:14;5.75;;;4.38;;
28483;SDS011;15704;48.834;8.736;2022-08-19T15:44:00;5.07;;;4.28;;
28483;SDS011;15704;48.834;8.736;2022-08-19T15:47:46;7.55;;;4.72;;
28483;SDS011;15704;48.834;8.736;2022-08-19T15:51:30;5.85;;;4.63;;
28483;SDS011;15704;48.834;8.736;2022-08-19T15:55:16;7.43;;;4.43;;
28483;SDS011;15704;48.834;8.736;2022-08-19T15:59:15;9.18;;;4.45;;
28483;SDS011;15704;48.834;8.736;2022-08-19T16:03:26;13.85;;;4.40;;
28483;SDS011;15704;48.834;8.736;2022-08-19T16:11:11;5.50;;;4.20;;
28483;SDS011;15704;48.834;8.736;2022-08-19T16:15:01;6.25;;;4.55;;
28483;SDS011;15704;48.834;8.736;2022-08-19T16:18:45;10.57;;;3.90;;
28483;SDS011;15704;48.834;8.736;2022-08-19T16:22:28;6.30;;;4.13;;
28483;SDS011;15704;48.834;8.736;2022-08-19T16:26:13;4.75;;;3.88;;
28483;SDS011;15704;48.834;8.736;2022-08-19T16:29:56;5.18;;;3.85;;
28483;SDS011;15704;48.834;8.736;2022-08-19T16:33:41;4.80;;;4.03;;
28483;SDS011;15704;48.834;8.736;2022-08-19T16:37:24;5.53;;;3.80;;
28483;SDS011;15704;48.834;8.736;2022-08-19T16:44:49;5.03;;;3.88;;
28483;SDS011;15704;48.834;8.736;2022-08-19T16:48:32;6.32;;;3.75;;
28483;SDS011;15704;48.834;8.736;2022-08-19T16:52:16;13.55;;;4.13;;
28483;SDS011;15704;48.834;8.736;2022-08-19T16:56:00;7.18;;;4.15;;
28483;SDS011;15704;48.834;8.736;2022-08-19T16:59:42;5.07;;;3.90;;
28483;SDS011;15704;48.834;8.736;2022-08-19T17:03:29;8.27;;;3.78;;
28483;SDS011;15704;48.834;8.736;2022-08-19T17:07:18;6.30;;;3.65;;
28483;SDS011;15704;48.834;8.736;2022-08-19T17:11:00;3.70;;;3.25;;
28483;SDS011;15704;48.834;8.736;2022-08-19T17:14:59;4.53;;;3.70;;
28483;SDS011;15704;48.834;8.736;2022-08-19T17:18:42;5.90;;;3.33;;
28483;SDS011;15704;48.834;8.736;2022-08-19T17:26:09;4.18;;;3.28;;
28483;SDS011;15704;48.834;8.736;2022-08-19T17:29:58;4.43;;;3.30;;
28483;SDS011;15704;48.834;8.736;2022-08-19T17:33:43;4.85;;;3.55;;
28483;SDS011;15704;48.834;8.736;2022-08-19T17:37:30;4.43;;;3.05;;
28483;SDS011;15704;48.834;8.736;2022-08-19T17:41:14;4.47;;;3.25;;
28483;SDS011;15704;48.834;8.736;2022-08-19T17:44:57;6.22;;;4.63;;
28483;SDS011;15704;48.834;8.736;2022-08-19T17:48:39;5.75;;;3.88;;
28483;SDS011;15704;48.834;8.736;2022-08-19T17:52:22;10.82;;;4.30;;
28483;SDS011;15704;48.834;8.736;2022-08-19T17:56:07;6.45;;;4.50;;
28483;SDS011;15704;48.834;8.736;2022-08-19T17:59:50;8.15;;;5.85;;
28483;SDS011;15704;48.834;8.736;2022-08-19T18:03:34;9.75;;;6.75;;
28483;SDS011;15704;48.834;8.736;2022-08-19T18:07:16;13.98;;;6.22;;
28483;SDS011;15704;48.834;8.736;2022-08-19T18:11:01;9.18;;;6.43;;
28483;SDS011;15704;48.834;8.736;2022-08-19T18:18:28;11.43;;;6.15;;
28483;SDS011;15704;48.834;8.736;2022-08-19T18:25:54;10.30;;;6.00;;
28483;SDS011;15704;48.834;8.736;2022-08-19T18:29:37;7.85;;;6.03;;
28483;SDS011;15704;48.834;8.736;2022-08-19T18:33:21;16.33;;;10.40;;
28483;SDS011;15704;48.834;8.736;2022-08-19T18:37:05;14.65;;;7.20;;
28483;SDS011;15704;48.834;8.736;2022-08-19T18:40:48;11.23;;;6.50;;
28483;SDS011;15704;48.834;8.736;2022-08-19T18:44:48;7.93;;;6.18;;
28483;SDS011;15704;48.834;8.736;2022-08-19T18:48:49;9.43;;;5.90;;
28483;SDS011;15704;48.834;8.736;2022-08-19T18:52:48;17.50;;;6.43;;
28483;SDS011;15704;48.834;8.736;2022-08-19T18:56:31;15.70;;;6.28;;
28483;SDS011;15704;48.834;8.736;2022-08-19T19:00:15;12.48;;;6.70;;
28483;SDS011;15704;48.834;8.736;2022-08-19T19:04:01;17.30;;;6.55;;
28483;SDS011;15704;48.834;8.736;2022-08-19T19:07:45;7.90;;;6.20;;
28483;SDS011;15704;48.834;8.736;2022-08-19T19:11:29;10.30;;;6.03;;
28483;SDS011;15704;48.834;8.736;2022-08-19T19:15:13;7.90;;;5.20;;
28483;SDS011;15704;48.834;8.736;2022-08-19T19:18:56;6.80;;;5.20;;
28483;SDS011;15704;48.834;8.736;2022-08-19T19:22:41;7.70;;;5.10;;
28483;SDS011;15704;48.834;8.736;2022-08-19T19:26:24;6.50;;;4.50;;
28483;SDS011;15704;48.834;8.736;2022-08-19T19:30:07;7.57;;;3.92;;
28483;SDS011;15704;48.834;8.736;2022-08-19T19:33:50;4.68;;;3.80;;
28483;SDS011;15704;48.834;8.736;2022-08-19T19:37:35;5.95;;;3.95;;
28483;SDS011;15704;48.834;8.736;2022-08-19T19:41:20;6.60;;;3.15;;
28483;SDS011;15704;48.834;8.736;2022-08-19T19:45:04;4.65;;;3.63;;
28483;SDS011;15704;48.834;8.736;2022-08-19T19:48:47;6.10;;;3.28;;
28483;SDS011;15704;48.834;8.736;2022-08-19T19:52:30;6.75;;;3.80;;
28483;SDS011;15704;48.834;8.736;2022-08-19T19:56:13;4.75;;;3.13;;
28483;SDS011;15704;48.834;8.736;2022-08-19T19:59:58;4.35;;;2.95;;
28483;SDS011;15704;48.834;8.736;2022-08-19T20:03:52;5.30;;;2.78;;
28483;SDS011;15704;48.834;8.736;2022-08-19T20:07:35;6.50;;;2.50;;
28483;SDS011;15704;48.834;8.736;2022-08-19T20:11:37;3.50;;;2.40;;
28483;SDS011;15704;48.834;8.736;2022-08-19T20:15:23;7.97;;;2.53;;
28483;SDS011;15704;48.834;8.736;2022-08-19T20:19:06;3.75;;;2.33;;
28483;SDS011;15704;48.834;8.736;2022-08-19T20:22:49;3.35;;;2.50;;
28483;SDS011;15704;48.834;8.736;2022-08-19T20:26:31;3.33;;;2.15;;
28483;SDS011;15704;48.834;8.736;2022-08-19T20:30:16;2.90;;;1.77;;
28483;SDS011;15704;48.834;8.736;2022-08-19T20:34:04;1.88;;;1.52;;
28483;SDS011;15704;48.834;8.736;2022-08-19T20:37:47;3.00;;;1.85;;
28483;SDS011;15704;48.834;8.736;2022-08-19T20:41:37;7.20;;;1.70;;
28483;SDS011;15704;48.834;8.736;2022-08-19T20:45:21;2.78;;;1.48;;
28483;SDS011;15704;48.834;8.736;2022-08-19T20:49:15;1.63;;;1.53;;
28483;SDS011;15704;48.834;8.736;2022-08-19T20:52:57;4.85;;;1.33;;
28483;SDS011;15704;48.834;8.736;2022-08-19T21:00:22;2.83;;;1.27;;
28483;SDS011;15704;48.834;8.736;2022-08-19T21:04:05;1.83;;;1.17;;
28483;SDS011;15704;48.834;8.736;2022-08-19T21:07:49;3.17;;;1.20;;
28483;SDS011;15704;48.834;8.736;2022-08-19T21:11:32;1.33;;;1.17;;
28483;SDS011;15704;48.834;8.736;2022-08-19T21:18:58;2.75;;;1.30;;
28483;SDS011;15704;48.834;8.736;2022-08-19T21:22:41;1.73;;;1.13;;
28483;SDS011;15704;48.834;8.736;2022-08-19T21:26:24;2.60;;;1.35;;
28483;SDS011;15704;48.834;8.736;2022-08-19T21:30:08;3.60;;;1.13;;
28483;SDS011;15704;48.834;8.736;2022-08-19T21:33:52;1.70;;;0.98;;
28483;SDS011;15704;48.834;8.736;2022-08-19T21:37:34;1.80;;;0.80;;
28483;SDS011;15704;48.834;8.736;2022-08-19T21:41:18;0.98;;;0.88;;
28483;SDS011;15704;48.834;8.736;2022-08-19T21:45:02;2.38;;;1.45;;
28483;SDS011;15704;48.834;8.736;2022-08-19T21:48:46;1.42;;;0.90;;
28483;SDS011;15704;48.834;8.736;2022-08-19T21:52:29;1.67;;;1.20;;
28483;SDS011;15704;48.834;8.736;2022-08-19T21:56:11;6.88;;;1.20;;
28483;SDS011;15704;48.834;8.736;2022-08-19T21:59:54;1.75;;;0.75;;
28483;SDS011;15704;48.834;8.736;2022-08-19T22:03:38;1.75;;;1.05;;
28483;SDS011;15704;48.834;8.736;2022-08-19T22:07:21;1.83;;;0.90;;
28483;SDS011;15704;48.834;8.736;2022-08-19T22:11:04;3.75;;;1.00;;
28483;SDS011;15704;48.834;8.736;2022-08-19T22:14:47;1.77;;;1.00;;
28483;SDS011;15704;48.834;8.736;2022-08-19T22:22:19;1.17;;;0.98;;
28483;SDS011;15704;48.834;8.736;2022-08-19T22:26:03;6.57;;;1.20;;
28483;SDS011;15704;48.834;8.736;2022-08-19T22:29:46;2.10;;;0.80;;
28483;SDS011;15704;48.834;8.736;2022-08-19T22:33:33;0.95;;;0.80;;
28483;SDS011;15704;48.834;8.736;2022-08-19T22:52:59;5.07;;;0.80;;
28483;SDS011;15704;48.834;8.736;2022-08-19T22:56:43;4.93;;;0.90;;
28483;SDS011;15704;48.834;8.736;2022-08-19T23:04:09;0.93;;;0.90;;
28483;SDS011;15704;48.834;8.736;2022-08-19T23:07:52;2.05;;;1.20;;
28483;SDS011;15704;48.834;8.736;2022-08-19T23:11:39;3.05;;;1.23;;
28483;SDS011;15704;48.834;8.736;2022-08-19T23:15:23;1.85;;;1.02;;
28483;SDS011;15704;48.834;8.736;2022-08-19T23:19:08;1.00;;;0.85;;
28483;SDS011;15704;48.834;8.736;2022-08-19T23:22:51;1.10;;;0.85;;
28483;SDS011;15704;48.834;8.736;2022-08-19T23:26:35;1.33;;;0.90;;
28483;SDS011;15704;48.834;8.736;2022-08-19T23:30:19;1.40;;;1.00;;
28483;SDS011;15704;48.834;8.736;2022-08-19T23:34:07;1.05;;;0.93;;
28483;SDS011;15704;48.834;8.736;2022-08-19T23:37:50;1.58;;;1.05;;
28483;SDS011;15704;48.834;8.736;2022-08-19T23:41:33;7.43;;;1.20;;